LFSB/MLH METAR and TAF weather

Enter ICAO airport designator
Station Type Date Time Source
LFSB METAR 2020/01/20 16:00 UTC NOAA

LFSB 201600Z 12006KT 9999 FEW046 04/M03 Q1040 NOSIG


Station Type Date Time Source
LFSB Decoded METAR 2020/01/20 16:00 UTC NOAA

Bale-Mulhouse, France (LFSB) 47-36N 007-31E 271M
Jan 20, 2020 - 11:00 AM EST / 2020.01.20 1600 UTC
Wind: from the ESE (120 degrees) at 7 MPH (6 KT):0
Visibility: greater than 7 mile(s):0
Sky conditions: mostly clear
Temperature: 39 F (4 C)
Dew Point: 26 F (-3 C)
Relative Humidity: 60%
Pressure (altimeter): 30.71 in. Hg (1040 hPa)
ob: LFSB 201600Z 12006KT 9999 FEW046 04/M03 Q1040 NOSIG
cycle: 16

Station Type Date Time Source
LFSB TAF 2020/01/20 12:21 UTC NOAA

TAF LFSB 201100Z 2012/2112 02005KT CAVOK PROB30
TEMPO 2022/2110 4000 BR BKN003

Example: see airport list